sensor_id;sensor_type;location;lat;lon;timestamp;temperature;humidity
24382;DHT22;12502;50.678;7.172;2023-05-07T00:03:25;13.30;99.90
24382;DHT22;12502;50.678;7.172;2023-05-07T00:08:28;13.20;99.90
24382;DHT22;12502;50.678;7.172;2023-05-07T00:18:37;13.20;99.90
24382;DHT22;12502;50.678;7.172;2023-05-07T00:23:39;13.20;99.90
24382;DHT22;12502;50.678;7.172;2023-05-07T02:05:46;13.30;99.90
24382;DHT22;12502;50.678;7.172;2023-05-07T02:10:47;13.30;99.90
24382;DHT22;12502;50.678;7.172;2023-05-07T02:15:49;13.20;99.90
24382;DHT22;12502;50.678;7.172;2023-05-07T02:20:52;13.20;99.90
24382;DHT22;12502;50.678;7.172;2023-05-07T02:25:53;13.20;99.90
24382;DHT22;12502;50.678;7.172;2023-05-07T02:30:55;13.20;99.90
24382;DHT22;12502;50.678;7.172;2023-05-07T02:35:57;13.20;99.90
24382;DHT22;12502;50.678;7.172;2023-05-07T02:40:58;13.10;99.90
24382;DHT22;12502;50.678;7.172;2023-05-07T02:46:01;13.20;99.90
24382;DHT22;12502;50.678;7.172;2023-05-07T02:51:04;13.20;99.90
24382;DHT22;12502;50.678;7.172;2023-05-07T02:56:06;13.30;99.90
24382;DHT22;12502;50.678;7.172;2023-05-07T03:01:09;13.30;99.90
24382;DHT22;12502;50.678;7.172;2023-05-07T03:06:11;13.20;99.90
24382;DHT22;12502;50.678;7.172;2023-05-07T03:11:13;13.10;99.90
24382;DHT22;12502;50.678;7.172;2023-05-07T03:16:19;13.10;99.90
24382;DHT22;12502;50.678;7.172;2023-05-07T03:21:23;13.10;99.90
24382;DHT22;12502;50.678;7.172;2023-05-07T03:26:25;13.10;99.90
24382;DHT22;12502;50.678;7.172;2023-05-07T03:31:29;13.10;99.90
24382;DHT22;12502;50.678;7.172;2023-05-07T03:36:34;13.20;99.90
24382;DHT22;12502;50.678;7.172;2023-05-07T03:41:36;13.20;99.90
24382;DHT22;12502;50.678;7.172;2023-05-07T03:46:42;13.20;99.90
24382;DHT22;12502;50.678;7.172;2023-05-07T03:51:46;13.10;99.90
24382;DHT22;12502;50.678;7.172;2023-05-07T03:56:48;13.10;99.90
24382;DHT22;12502;50.678;7.172;2023-05-07T04:01:49;13.10;99.90
24382;DHT22;12502;50.678;7.172;2023-05-07T04:06:51;13.10;99.90
24382;DHT22;12502;50.678;7.172;2023-05-07T04:11:55;13.20;99.90
24382;DHT22;12502;50.678;7.172;2023-05-07T04:16:58;13.20;99.90
24382;DHT22;12502;50.678;7.172;2023-05-07T04:22:01;13.20;99.90
24382;DHT22;12502;50.678;7.172;2023-05-07T04:27:03;13.10;99.90
24382;DHT22;12502;50.678;7.172;2023-05-07T04:32:08;13.20;99.90
24382;DHT22;12502;50.678;7.172;2023-05-07T04:37:10;13.30;99.90
24382;DHT22;12502;50.678;7.172;2023-05-07T04:42:15;13.20;99.90
24382;DHT22;12502;50.678;7.172;2023-05-07T04:47:18;13.30;99.90
24382;DHT22;12502;50.678;7.172;2023-05-07T04:57:48;13.20;99.90
24382;DHT22;12502;50.678;7.172;2023-05-07T05:02:50;13.20;99.90
24382;DHT22;12502;50.678;7.172;2023-05-07T05:07:52;13.30;99.90
24382;DHT22;12502;50.678;7.172;2023-05-07T05:12:54;13.30;99.90
24382;DHT22;12502;50.678;7.172;2023-05-07T05:17:58;13.40;99.90
24382;DHT22;12502;50.678;7.172;2023-05-07T05:23:00;13.50;99.90
24382;DHT22;12502;50.678;7.172;2023-05-07T05:28:03;13.60;99.90
24382;DHT22;12502;50.678;7.172;2023-05-07T05:33:05;13.70;99.90
24382;DHT22;12502;50.678;7.172;2023-05-07T05:38:07;13.80;99.90
24382;DHT22;12502;50.678;7.172;2023-05-07T05:43:10;13.80;99.90
24382;DHT22;12502;50.678;7.172;2023-05-07T05:48:13;13.80;99.90
24382;DHT22;12502;50.678;7.172;2023-05-07T05:53:15;13.90;99.90
24382;DHT22;12502;50.678;7.172;2023-05-07T05:58:18;13.80;99.90
24382;DHT22;12502;50.678;7.172;2023-05-07T06:03:22;13.80;99.90
24382;DHT22;12502;50.678;7.172;2023-05-07T06:08:24;13.90;99.90
24382;DHT22;12502;50.678;7.172;2023-05-07T06:13:26;14.10;99.90
24382;DHT22;12502;50.678;7.172;2023-05-07T06:18:27;14.10;99.90
24382;DHT22;12502;50.678;7.172;2023-05-07T06:23:29;14.30;99.90
24382;DHT22;12502;50.678;7.172;2023-05-07T06:28:31;14.40;99.90
24382;DHT22;12502;50.678;7.172;2023-05-07T06:33:37;14.60;99.90
24382;DHT22;12502;50.678;7.172;2023-05-07T06:38:38;14.70;99.90
24382;DHT22;12502;50.678;7.172;2023-05-07T06:43:40;14.90;99.90
24382;DHT22;12502;50.678;7.172;2023-05-07T06:48:43;15.00;99.90
24382;DHT22;12502;50.678;7.172;2023-05-07T06:53:44;15.00;99.90
24382;DHT22;12502;50.678;7.172;2023-05-07T06:58:47;15.10;99.90
24382;DHT22;12502;50.678;7.172;2023-05-07T07:03:49;15.00;99.90
24382;DHT22;12502;50.678;7.172;2023-05-07T07:08:50;15.10;99.90
24382;DHT22;12502;50.678;7.172;2023-05-07T07:13:52;15.10;99.90
24382;DHT22;12502;50.678;7.172;2023-05-07T07:18:57;15.10;99.90
24382;DHT22;12502;50.678;7.172;2023-05-07T07:24:01;15.20;99.90
24382;DHT22;12502;50.678;7.172;2023-05-07T07:29:03;15.20;99.90
24382;DHT22;12502;50.678;7.172;2023-05-07T07:34:10;15.40;99.90
24382;DHT22;12502;50.678;7.172;2023-05-07T07:39:12;15.40;99.90
24382;DHT22;12502;50.678;7.172;2023-05-07T07:44:15;15.40;99.90
24382;DHT22;12502;50.678;7.172;2023-05-07T07:49:17;15.60;99.90
24382;DHT22;12502;50.678;7.172;2023-05-07T07:54:20;15.70;99.90
24382;DHT22;12502;50.678;7.172;2023-05-07T07:59:21;15.90;99.90
24382;DHT22;12502;50.678;7.172;2023-05-07T08:04:23;16.10;99.90
24382;DHT22;12502;50.678;7.172;2023-05-07T08:09:26;16.20;99.90
24382;DHT22;12502;50.678;7.172;2023-05-07T08:14:29;16.40;99.90
24382;DHT22;12502;50.678;7.172;2023-05-07T08:19:33;16.70;99.90
24382;DHT22;12502;50.678;7.172;2023-05-07T08:24:36;16.80;99.90
24382;DHT22;12502;50.678;7.172;2023-05-07T08:29:39;17.10;99.90
24382;DHT22;12502;50.678;7.172;2023-05-07T08:34:42;17.20;99.90
24382;DHT22;12502;50.678;7.172;2023-05-07T08:39:45;17.30;99.90
24382;DHT22;12502;50.678;7.172;2023-05-07T08:44:46;17.30;99.90
24382;DHT22;12502;50.678;7.172;2023-05-07T08:49:49;17.50;99.90
24382;DHT22;12502;50.678;7.172;2023-05-07T08:54:52;17.90;99.90
24382;DHT22;12502;50.678;7.172;2023-05-07T08:59:53;17.80;99.90
24382;DHT22;12502;50.678;7.172;2023-05-07T09:04:55;18.10;99.90
24382;DHT22;12502;50.678;7.172;2023-05-07T09:09:57;18.30;99.90
24382;DHT22;12502;50.678;7.172;2023-05-07T09:15:00;18.20;99.90
24382;DHT22;12502;50.678;7.172;2023-05-07T09:20:03;18.70;99.90
24382;DHT22;12502;50.678;7.172;2023-05-07T09:25:07;18.80;99.90
24382;DHT22;12502;50.678;7.172;2023-05-07T09:35:17;18.90;99.90
24382;DHT22;12502;50.678;7.172;2023-05-07T09:40:26;19.00;99.90
24382;DHT22;12502;50.678;7.172;2023-05-07T09:45:30;19.10;99.90
24382;DHT22;12502;50.678;7.172;2023-05-07T09:50:40;19.30;99.90
24382;DHT22;12502;50.678;7.172;2023-05-07T09:55:45;19.70;99.90
24382;DHT22;12502;50.678;7.172;2023-05-07T10:00:49;20.00;99.90
24382;DHT22;12502;50.678;7.172;2023-05-07T10:05:52;20.30;99.90
24382;DHT22;12502;50.678;7.172;2023-05-07T10:10:54;20.40;99.90
24382;DHT22;12502;50.678;7.172;2023-05-07T10:15:56;20.90;99.90
24382;DHT22;12502;50.678;7.172;2023-05-07T10:21:02;21.10;99.90
24382;DHT22;12502;50.678;7.172;2023-05-07T10:26:06;20.80;99.90
24382;DHT22;12502;50.678;7.172;2023-05-07T10:31:23;20.80;99.90
24382;DHT22;12502;50.678;7.172;2023-05-07T10:36:33;21.00;99.90
24382;DHT22;12502;50.678;7.172;2023-05-07T10:41:43;21.40;99.90
24382;DHT22;12502;50.678;7.172;2023-05-07T10:52:17;22.00;99.90
24382;DHT22;12502;50.678;7.172;2023-05-07T10:57:33;21.90;99.90
24382;DHT22;12502;50.678;7.172;2023-05-07T11:08:00;21.80;99.90
24382;DHT22;12502;50.678;7.172;2023-05-07T11:13:04;22.20;99.90
24382;DHT22;12502;50.678;7.172;2023-05-07T11:28:42;22.50;99.90
24382;DHT22;12502;50.678;7.172;2023-05-07T11:33:44;22.10;99.90
24382;DHT22;12502;50.678;7.172;2023-05-07T11:38:48;22.10;99.90
24382;DHT22;12502;50.678;7.172;2023-05-07T11:44:00;22.40;99.90
24382;DHT22;12502;50.678;7.172;2023-05-07T11:54:11;22.40;99.90
24382;DHT22;12502;50.678;7.172;2023-05-07T11:59:24;22.30;99.90
24382;DHT22;12502;50.678;7.172;2023-05-07T12:09:55;22.40;99.90
24382;DHT22;12502;50.678;7.172;2023-05-07T12:14:59;22.50;99.90
24382;DHT22;12502;50.678;7.172;2023-05-07T12:20:18;22.70;99.90
24382;DHT22;12502;50.678;7.172;2023-05-07T12:25:24;23.10;99.90
24382;DHT22;12502;50.678;7.172;2023-05-07T12:30:26;23.00;99.90
24382;DHT22;12502;50.678;7.172;2023-05-07T12:40:49;22.70;99.90
24382;DHT22;12502;50.678;7.172;2023-05-07T12:45:57;22.80;99.90
24382;DHT22;12502;50.678;7.172;2023-05-07T12:56:38;22.90;99.90
24382;DHT22;12502;50.678;7.172;2023-05-07T13:01:39;23.00;99.90
24382;DHT22;12502;50.678;7.172;2023-05-07T13:06:41;23.60;99.90
24382;DHT22;12502;50.678;7.172;2023-05-07T13:11:43;23.40;99.90
24382;DHT22;12502;50.678;7.172;2023-05-07T13:16:46;22.70;99.90
24382;DHT22;12502;50.678;7.172;2023-05-07T13:21:48;22.40;99.90
24382;DHT22;12502;50.678;7.172;2023-05-07T13:26:51;22.20;99.90
24382;DHT22;12502;50.678;7.172;2023-05-07T13:31:54;22.30;99.90
24382;DHT22;12502;50.678;7.172;2023-05-07T13:36:58;22.10;99.90
24382;DHT22;12502;50.678;7.172;2023-05-07T13:42:00;22.50;99.90
24382;DHT22;12502;50.678;7.172;2023-05-07T13:47:01;22.30;99.90
24382;DHT22;12502;50.678;7.172;2023-05-07T13:52:03;22.40;99.90
24382;DHT22;12502;50.678;7.172;2023-05-07T13:57:05;22.10;99.90
24382;DHT22;12502;50.678;7.172;2023-05-07T14:07:13;21.70;99.90
24382;DHT22;12502;50.678;7.172;2023-05-07T14:12:15;21.40;99.90
24382;DHT22;12502;50.678;7.172;2023-05-07T14:17:17;21.30;99.90
24382;DHT22;12502;50.678;7.172;2023-05-07T14:22:20;20.40;99.90
24382;DHT22;12502;50.678;7.172;2023-05-07T14:27:22;19.40;99.90
24382;DHT22;12502;50.678;7.172;2023-05-07T14:32:24;18.80;99.90
24382;DHT22;12502;50.678;7.172;2023-05-07T14:37:26;18.00;99.90
24382;DHT22;12502;50.678;7.172;2023-05-07T14:42:28;17.60;99.90
24382;DHT22;12502;50.678;7.172;2023-05-07T14:47:30;17.40;99.90
24382;DHT22;12502;50.678;7.172;2023-05-07T14:52:31;17.30;99.90
24382;DHT22;12502;50.678;7.172;2023-05-07T14:57:37;17.40;99.90
24382;DHT22;12502;50.678;7.172;2023-05-07T15:02:47;17.30;99.90
24382;DHT22;12502;50.678;7.172;2023-05-07T15:07:49;17.20;99.90
24382;DHT22;12502;50.678;7.172;2023-05-07T15:12:51;17.00;99.90
24382;DHT22;12502;50.678;7.172;2023-05-07T15:17:54;17.00;99.90
24382;DHT22;12502;50.678;7.172;2023-05-07T15:22:55;17.00;99.90
24382;DHT22;12502;50.678;7.172;2023-05-07T15:27:57;17.10;99.90
24382;DHT22;12502;50.678;7.172;2023-05-07T15:32:59;16.80;99.90
24382;DHT22;12502;50.678;7.172;2023-05-07T15:38:01;16.70;99.90
24382;DHT22;12502;50.678;7.172;2023-05-07T15:43:04;16.70;99.90
24382;DHT22;12502;50.678;7.172;2023-05-07T15:48:06;16.60;99.90
24382;DHT22;12502;50.678;7.172;2023-05-07T15:53:08;16.60;99.90
24382;DHT22;12502;50.678;7.172;2023-05-07T15:58:12;16.50;99.90
24382;DHT22;12502;50.678;7.172;2023-05-07T16:03:14;16.40;99.90
24382;DHT22;12502;50.678;7.172;2023-05-07T16:08:17;16.40;99.90
24382;DHT22;12502;50.678;7.172;2023-05-07T16:13:18;16.40;99.90
24382;DHT22;12502;50.678;7.172;2023-05-07T16:18:22;16.50;99.90
24382;DHT22;12502;50.678;7.172;2023-05-07T16:23:23;16.40;99.90
24382;DHT22;12502;50.678;7.172;2023-05-07T16:28:26;16.30;99.90
24382;DHT22;12502;50.678;7.172;2023-05-07T16:33:27;16.30;99.90
24382;DHT22;12502;50.678;7.172;2023-05-07T16:38:29;16.30;99.90
24382;DHT22;12502;50.678;7.172;2023-05-07T16:43:33;16.30;99.90
24382;DHT22;12502;50.678;7.172;2023-05-07T16:48:36;16.30;99.90
24382;DHT22;12502;50.678;7.172;2023-05-07T16:53:38;16.30;99.90
24382;DHT22;12502;50.678;7.172;2023-05-07T16:58:41;16.30;99.90
24382;DHT22;12502;50.678;7.172;2023-05-07T17:03:43;16.30;99.90
24382;DHT22;12502;50.678;7.172;2023-05-07T17:08:45;16.40;99.90
24382;DHT22;12502;50.678;7.172;2023-05-07T17:13:47;16.20;99.90
24382;DHT22;12502;50.678;7.172;2023-05-07T17:18:50;16.30;99.90
24382;DHT22;12502;50.678;7.172;2023-05-07T17:23:54;16.30;99.90
24382;DHT22;12502;50.678;7.172;2023-05-07T17:28:59;16.20;99.90
24382;DHT22;12502;50.678;7.172;2023-05-07T17:34:01;16.20;99.90
24382;DHT22;12502;50.678;7.172;2023-05-07T17:39:03;16.20;99.90
24382;DHT22;12502;50.678;7.172;2023-05-07T17:44:09;16.20;99.90
24382;DHT22;12502;50.678;7.172;2023-05-07T17:49:14;16.20;99.90
24382;DHT22;12502;50.678;7.172;2023-05-07T17:54:16;16.10;99.90
24382;DHT22;12502;50.678;7.172;2023-05-07T17:59:18;16.10;99.90
24382;DHT22;12502;50.678;7.172;2023-05-07T18:04:20;16.10;99.90
24382;DHT22;12502;50.678;7.172;2023-05-07T18:09:22;16.00;99.90
24382;DHT22;12502;50.678;7.172;2023-05-07T18:14:24;15.90;99.90
24382;DHT22;12502;50.678;7.172;2023-05-07T18:19:26;15.90;99.90
24382;DHT22;12502;50.678;7.172;2023-05-07T18:24:29;15.90;99.90
24382;DHT22;12502;50.678;7.172;2023-05-07T18:29:31;15.80;99.90
24382;DHT22;12502;50.678;7.172;2023-05-07T18:34:33;15.80;99.90
24382;DHT22;12502;50.678;7.172;2023-05-07T18:39:35;15.70;99.90
24382;DHT22;12502;50.678;7.172;2023-05-07T18:44:36;15.70;99.90
24382;DHT22;12502;50.678;7.172;2023-05-07T18:49:39;15.70;99.90
24382;DHT22;12502;50.678;7.172;2023-05-07T18:54:40;15.60;99.90
24382;DHT22;12502;50.678;7.172;2023-05-07T18:59:44;15.60;99.90
24382;DHT22;12502;50.678;7.172;2023-05-07T19:04:46;15.60;99.90
24382;DHT22;12502;50.678;7.172;2023-05-07T19:09:50;15.60;99.90
24382;DHT22;12502;50.678;7.172;2023-05-07T19:15:13;15.60;99.90
24382;DHT22;12502;50.678;7.172;2023-05-07T19:20:14;15.50;99.90
24382;DHT22;12502;50.678;7.172;2023-05-07T19:25:16;15.50;99.90
24382;DHT22;12502;50.678;7.172;2023-05-07T19:30:19;15.50;99.90
24382;DHT22;12502;50.678;7.172;2023-05-07T19:35:22;15.40;99.90
24382;DHT22;12502;50.678;7.172;2023-05-07T19:40:27;15.40;99.90
24382;DHT22;12502;50.678;7.172;2023-05-07T19:45:35;15.40;99.90
24382;DHT22;12502;50.678;7.172;2023-05-07T19:50:38;15.50;99.90
24382;DHT22;12502;50.678;7.172;2023-05-07T19:55:40;15.40;99.90
24382;DHT22;12502;50.678;7.172;2023-05-07T20:00:42;15.30;99.90
24382;DHT22;12502;50.678;7.172;2023-05-07T20:05:48;15.30;99.90
24382;DHT22;12502;50.678;7.172;2023-05-07T20:10:53;15.30;99.90
24382;DHT22;12502;50.678;7.172;2023-05-07T20:16:00;15.30;99.90
24382;DHT22;12502;50.678;7.172;2023-05-07T20:21:01;15.30;99.90
24382;DHT22;12502;50.678;7.172;2023-05-07T20:26:06;15.20;99.90
24382;DHT22;12502;50.678;7.172;2023-05-07T20:31:07;15.10;99.90
24382;DHT22;12502;50.678;7.172;2023-05-07T20:36:10;15.10;99.90
24382;DHT22;12502;50.678;7.172;2023-05-07T20:41:13;15.00;99.90
24382;DHT22;12502;50.678;7.172;2023-05-07T20:46:14;14.90;99.90
24382;DHT22;12502;50.678;7.172;2023-05-07T20:51:17;14.90;99.90
24382;DHT22;12502;50.678;7.172;2023-05-07T20:56:21;14.90;99.90
24382;DHT22;12502;50.678;7.172;2023-05-07T21:01:24;14.90;99.90
24382;DHT22;12502;50.678;7.172;2023-05-07T21:06:25;14.90;99.90
24382;DHT22;12502;50.678;7.172;2023-05-07T21:11:28;14.90;99.90
24382;DHT22;12502;50.678;7.172;2023-05-07T21:16:31;14.90;99.90
24382;DHT22;12502;50.678;7.172;2023-05-07T21:21:35;15.00;99.90
24382;DHT22;12502;50.678;7.172;2023-05-07T21:26:37;15.00;99.90
24382;DHT22;12502;50.678;7.172;2023-05-07T21:31:39;14.90;99.90
24382;DHT22;12502;50.678;7.172;2023-05-07T21:36:42;14.90;99.90
24382;DHT22;12502;50.678;7.172;2023-05-07T21:41:44;15.00;99.90
24382;DHT22;12502;50.678;7.172;2023-05-07T21:46:47;15.00;99.90
24382;DHT22;12502;50.678;7.172;2023-05-07T21:51:50;14.90;99.90
24382;DHT22;12502;50.678;7.172;2023-05-07T21:56:52;15.00;99.90
24382;DHT22;12502;50.678;7.172;2023-05-07T22:01:57;15.00;99.90
24382;DHT22;12502;50.678;7.172;2023-05-07T22:07:00;14.90;99.90
24382;DHT22;12502;50.678;7.172;2023-05-07T22:12:02;14.90;99.90
24382;DHT22;12502;50.678;7.172;2023-05-07T22:17:05;14.90;99.90
24382;DHT22;12502;50.678;7.172;2023-05-07T22:22:17;15.00;99.90
24382;DHT22;12502;50.678;7.172;2023-05-07T22:27:19;14.90;99.90
24382;DHT22;12502;50.678;7.172;2023-05-07T22:32:21;14.90;99.90
24382;DHT22;12502;50.678;7.172;2023-05-07T22:37:24;14.80;99.90
24382;DHT22;12502;50.678;7.172;2023-05-07T22:42:28;14.80;99.90
24382;DHT22;12502;50.678;7.172;2023-05-07T22:47:31;14.90;99.90
24382;DHT22;12502;50.678;7.172;2023-05-07T22:52:33;14.80;99.90
24382;DHT22;12502;50.678;7.172;2023-05-07T22:57:36;14.80;99.90
24382;DHT22;12502;50.678;7.172;2023-05-07T23:02:38;14.90;99.90
24382;DHT22;12502;50.678;7.172;2023-05-07T23:07:40;14.80;99.90
24382;DHT22;12502;50.678;7.172;2023-05-07T23:12:43;14.80;99.90
24382;DHT22;12502;50.678;7.172;2023-05-07T23:17:49;14.80;99.90
24382;DHT22;12502;50.678;7.172;2023-05-07T23:22:52;14.80;99.90
24382;DHT22;12502;50.678;7.172;2023-05-07T23:27:54;14.80;99.90
24382;DHT22;12502;50.678;7.172;2023-05-07T23:32:56;14.80;99.90
24382;DHT22;12502;50.678;7.172;2023-05-07T23:37:58;14.70;99.90
24382;DHT22;12502;50.678;7.172;2023-05-07T23:43:01;14.70;99.90
24382;DHT22;12502;50.678;7.172;2023-05-07T23:48:03;14.70;99.90
24382;DHT22;12502;50.678;7.172;2023-05-07T23:53:04;14.70;99.90
24382;DHT22;12502;50.678;7.172;2023-05-07T23:58:06;14.70;99.90
